Time;durP1;ratioP1;P1;durP2;ratioP2;P2;SDS_P1;SDS_P2;PMS_P1;PMS_P2;Temp;Humidity;BMP_temperature;BMP_pressure;BME280_temperature;BME280_humidity;BME280_pressure;Samples;Min_cycle;Max_cycle;Signal;HPM_P1;HPM_P2
2022/07/19 00:00:48;;;;;;;2.80;1.60;;;;;;;25.31;40.82;95570.03;4999973;28;20026;-51
2022/07/19 00:03:14;;;;;;;2.97;1.90;;;;;;;25.29;41.05;95567.06;4996251;28;20021;-51
2022/07/19 00:05:39;;;;;;;2.95;1.70;;;;;;;25.31;41.32;95570.78;5003013;28;20525;-51
2022/07/19 00:08:05;;;;;;;2.63;1.90;;;;;;;25.34;41.09;95569.03;4999791;28;20042;-49
2022/07/19 00:10:31;;;;;;;3.70;1.90;;;;;;;25.30;41.46;95573.28;5005363;28;20034;-51
2022/07/19 00:12:56;;;;;;;3.75;1.42;;;;;;;25.25;41.73;95571.34;4995608;28;20022;-51
2022/07/19 00:15:21;;;;;;;3.85;1.70;;;;;;;25.27;41.44;95564.09;5003654;28;20045;-51
2022/07/19 00:17:48;;;;;;;5.00;1.73;;;;;;;25.26;41.42;95573.56;4994148;28;20434;-51
2022/07/19 00:20:15;;;;;;;3.13;1.73;;;;;;;25.21;41.63;95570.84;5005230;28;20057;-51
2022/07/19 00:22:40;;;;;;;3.55;1.70;;;;;;;25.20;41.86;95564.66;4998277;28;20030;-51
2022/07/19 00:25:06;;;;;;;2.83;1.73;;;;;;;25.18;41.56;95567.13;5004862;28;20428;-50
2022/07/19 00:27:31;;;;;;;3.45;1.75;;;;;;;25.18;41.60;95569.88;4994874;28;20065;-50
2022/07/19 00:29:57;;;;;;;3.00;1.63;;;;;;;25.15;41.50;95573.63;5004517;28;20040;-51
2022/07/19 00:32:22;;;;;;;2.35;1.60;;;;;;;25.10;41.91;95571.66;4999396;28;20038;-50
2022/07/19 00:34:48;;;;;;;2.80;2.00;;;;;;;25.14;41.90;95566.69;5003757;28;20044;-51
2022/07/19 00:37:13;;;;;;;4.68;1.85;;;;;;;25.13;41.92;95565.19;4998364;28;20100;-51
2022/07/19 00:39:38;;;;;;;4.78;1.70;;;;;;;25.08;41.98;95565.97;5000934;28;20547;-51
2022/07/19 00:42:04;;;;;;;3.53;1.90;;;;;;;25.05;42.20;95564.25;4999238;28;20037;-52
2022/07/19 00:44:30;;;;;;;2.42;1.85;;;;;;;25.09;41.98;95570.19;5003150;28;20083;-50
2022/07/19 00:46:55;;;;;;;2.10;1.83;;;;;;;25.06;42.36;95565.72;5001409;28;20038;-52
2022/07/19 00:49:21;;;;;;;4.55;2.08;;;;;;;25.07;42.25;95561.75;5004724;28;20050;-50
2022/07/19 00:51:47;;;;;;;3.88;1.80;;;;;;;25.06;42.54;95571.19;4997879;28;20390;-51
2022/07/19 00:54:12;;;;;;;5.18;1.92;;;;;;;25.06;42.52;95571.19;5018913;28;20485;-52
2022/07/19 00:56:38;;;;;;;2.58;1.90;;;;;;;25.04;42.44;95568.22;4998699;28;20332;-51
2022/07/19 00:59:04;;;;;;;2.58;1.77;;;;;;;24.99;42.14;95560.81;5018956;28;20088;-51
2022/07/19 01:01:30;;;;;;;6.38;2.28;;;;;;;25.01;42.46;95569.25;5000742;28;20444;-51
2022/07/19 01:03:56;;;;;;;4.38;1.83;;;;;;;24.97;42.51;95557.81;5015188;28;20448;-51
2022/07/19 01:06:22;;;;;;;3.88;1.83;;;;;;;24.98;42.46;95559.28;4999886;28;20026;-51
2022/07/19 01:08:47;;;;;;;2.55;1.60;;;;;;;24.94;42.62;95547.88;5002172;28;20386;-49
2022/07/19 01:11:13;;;;;;;3.63;1.80;;;;;;;24.95;42.92;95554.84;5016096;28;20026;-49
2022/07/19 01:13:38;;;;;;;1.83;1.50;;;;;;;24.93;42.53;95551.88;5003330;28;20056;-49
2022/07/19 01:16:04;;;;;;;3.17;1.70;;;;;;;24.88;42.83;95560.84;5015707;28;20041;-50
2022/07/19 01:18:30;;;;;;;3.00;1.90;;;;;;;24.89;42.51;95556.88;4996811;28;20129;-51
2022/07/19 01:20:56;;;;;;;4.32;2.10;;;;;;;24.89;42.74;95551.41;5002622;28;20026;-51
2022/07/19 01:23:22;;;;;;;2.30;1.60;;;;;;;24.92;42.53;95561.31;5013431;28;20017;-49
2022/07/19 01:25:47;;;;;;;4.00;1.63;;;;;;;24.91;42.69;95561.81;5002679;28;20040;-51
2022/07/19 01:28:13;;;;;;;2.42;1.58;;;;;;;24.86;43.01;95552.41;4995121;28;20029;-51
2022/07/19 01:30:38;;;;;;;2.75;1.63;;;;;;;24.86;43.04;95557.16;5002581;28;20038;-50
2022/07/19 01:33:04;;;;;;;2.90;1.70;;;;;;;24.86;43.02;95552.41;4997480;28;20471;-49
2022/07/19 01:35:29;;;;;;;2.33;1.67;;;;;;;24.83;43.03;95545.22;5003592;28;20030;-51
2022/07/19 01:37:55;;;;;;;5.13;1.65;;;;;;;24.85;43.03;95550.91;4996676;28;20034;-50
2022/07/19 01:40:20;;;;;;;4.20;1.95;;;;;;;24.84;42.68;95543.22;5001059;28;20115;-51
2022/07/19 01:42:46;;;;;;;2.22;1.40;;;;;;;24.82;42.95;95545.72;4996416;28;20017;-51
2022/07/19 01:45:12;;;;;;;4.22;1.80;;;;;;;24.79;43.17;95541.28;5001158;28;20091;-49
2022/07/19 01:47:37;;;;;;;1.80;1.45;;;;;;;24.77;43.11;95543.03;5000679;28;20041;-50
2022/07/19 01:50:04;;;;;;;2.40;1.60;;;;;;;24.78;43.50;95539.06;5002331;28;20060;-50
2022/07/19 01:52:29;;;;;;;2.28;1.52;;;;;;;24.73;43.51;95548.78;4993483;28;20022;-51
2022/07/19 01:54:54;;;;;;;4.35;1.50;;;;;;;24.70;43.50;95538.13;5003144;28;20064;-50
2022/07/19 01:57:20;;;;;;;2.47;1.75;;;;;;;24.50;43.58;95524.81;4996520;28;20025;-51
2022/07/19 01:59:45;;;;;;;3.20;1.92;;;;;;;24.49;43.13;95523.34;5003155;28;20032;-51
2022/07/19 02:02:11;;;;;;;2.10;1.50;;;;;;;24.67;43.10;95544.59;4995932;28;20096;-50
2022/07/19 02:04:36;;;;;;;3.33;1.52;;;;;;;24.69;43.63;95542.09;5001547;28;20025;-50
2022/07/19 02:07:02;;;;;;;2.03;1.60;;;;;;;24.74;43.69;95544.78;4995943;28;20038;-51
2022/07/19 02:09:28;;;;;;;2.83;1.50;;;;;;;24.68;43.40;95543.31;5002391;28;20030;-51
2022/07/19 02:11:53;;;;;;;2.38;1.90;;;;;;;24.66;43.41;95554.03;4996321;28;20781;-52
2022/07/19 02:14:18;;;;;;;2.95;1.70;;;;;;;24.67;43.77;95550.06;5002322;28;20025;-49
2022/07/19 02:16:44;;;;;;;3.80;1.70;;;;;;;24.64;43.84;95551.06;4996722;28;20069;-51
2022/07/19 02:19:10;;;;;;;1.98;1.40;;;;;;;24.64;43.45;95545.59;5002796;28;20505;-51
2022/07/19 02:21:35;;;;;;;4.05;1.80;;;;;;;24.63;43.49;95549.56;4997818;28;20541;-51
2022/07/19 02:24:01;;;;;;;2.38;1.42;;;;;;;24.68;43.50;95551.53;5001882;28;20041;-50
2022/07/19 02:26:27;;;;;;;2.55;1.63;;;;;;;24.66;43.35;95554.03;4998463;28;20489;-52
2022/07/19 02:28:53;;;;;;;2.63;1.50;;;;;;;24.60;43.81;95550.56;4999355;28;20038;-50
2022/07/19 02:31:18;;;;;;;2.70;1.45;;;;;;;24.60;43.82;95551.34;4999473;28;20037;-51
2022/07/19 02:33:44;;;;;;;2.70;1.50;;;;;;;24.58;43.48;95564.72;5001511;28;20021;-51
2022/07/19 02:36:09;;;;;;;4.25;1.42;;;;;;;24.60;43.79;95550.56;5000918;28;20034;-50
2022/07/19 02:38:35;;;;;;;2.95;1.40;;;;;;;24.56;44.03;95556.31;4997477;28;20469;-50
2022/07/19 02:41:00;;;;;;;3.88;1.52;;;;;;;24.50;43.64;95552.13;4997019;28;20481;-51
2022/07/19 02:43:26;;;;;;;1.77;1.20;;;;;;;24.50;43.71;95560.31;4993130;28;20058;-50
2022/07/19 02:45:52;;;;;;;3.28;1.60;;;;;;;24.54;43.76;95560.78;5001093;28;20369;-51
2022/07/19 02:48:17;;;;;;;5.53;1.60;;;;;;;24.53;43.85;95564.78;5010874;28;20325;-50
2022/07/19 02:50:43;;;;;;;2.00;1.15;;;;;;;24.47;43.98;95558.59;5000349;28;20052;-49
2022/07/19 02:53:08;;;;;;;3.00;1.60;;;;;;;24.43;44.10;95569.03;4995966;28;20040;-50
2022/07/19 02:55:34;;;;;;;1.60;1.48;;;;;;;24.42;43.96;95551.91;5002693;28;20727;-51
2022/07/19 02:57:59;;;;;;;3.72;1.58;;;;;;;24.43;43.81;95569.75;4995244;28;20034;-52
2022/07/19 03:00:25;;;;;;;2.80;1.40;;;;;;;24.39;43.99;95574.00;5001801;28;20417;-51
2022/07/19 03:02:50;;;;;;;2.63;1.40;;;;;;;24.41;44.27;95577.00;4989319;28;20038;-51
2022/07/19 03:05:16;;;;;;;2.50;1.35;;;;;;;24.44;43.50;95573.25;5007508;28;20034;-50
2022/07/19 03:07:41;;;;;;;3.90;1.23;;;;;;;24.39;43.62;95568.53;4987459;28;20506;-51
2022/07/19 03:10:07;;;;;;;3.88;1.50;;;;;;;24.37;43.53;95571.03;5002336;28;20109;-51
2022/07/19 03:12:33;;;;;;;3.67;1.30;;;;;;;24.33;44.15;95576.00;4994881;28;20424;-49
2022/07/19 03:14:58;;;;;;;3.10;1.60;;;;;;;24.33;43.98;95565.09;5001887;28;20038;-50
2022/07/19 03:17:23;;;;;;;2.50;1.33;;;;;;;24.33;44.08;95578.00;4994601;28;20030;-51
2022/07/19 03:19:49;;;;;;;2.03;1.40;;;;;;;24.32;43.71;95574.50;4999589;28;20073;-51
2022/07/19 03:22:14;;;;;;;4.20;1.48;;;;;;;24.32;43.82;95574.50;4993516;28;20034;-51
2022/07/19 03:24:40;;;;;;;4.38;1.73;;;;;;;24.26;43.96;95576.50;4990870;28;20034;-51
2022/07/19 03:27:05;;;;;;;1.80;1.30;;;;;;;24.28;44.01;95576.75;4981338;28;20026;-49
2022/07/19 03:29:31;;;;;;;2.00;1.25;;;;;;;24.23;43.80;95574.78;4984290;28;20022;-50
2022/07/19 03:31:57;;;;;;;3.97;1.52;;;;;;;24.27;44.42;95588.16;4989973;28;20425;-49
2022/07/19 03:34:22;;;;;;;3.85;1.83;;;;;;;24.25;44.19;95580.47;4989316;28;20038;-50
2022/07/19 03:36:48;;;;;;;3.08;1.48;;;;;;;24.21;44.54;95584.72;4987074;28;20041;-50
2022/07/19 03:39:13;;;;;;;3.13;1.55;;;;;;;24.22;44.17;95586.94;5002680;28;20265;-49
2022/07/19 03:41:38;;;;;;;2.28;1.50;;;;;;;24.18;44.11;95586.44;4991103;28;20516;-50
2022/07/19 03:44:04;;;;;;;1.90;1.40;;;;;;;24.17;44.76;95592.41;4991829;28;20038;-49
2022/07/19 03:46:30;;;;;;;2.67;1.40;;;;;;;24.17;44.73;95590.44;4988374;28;20026;-49
2022/07/19 03:48:56;;;;;;;2.80;1.40;;;;;;;24.14;44.91;95591.44;4994777;28;20034;-50
2022/07/19 03:51:22;;;;;;;3.20;1.73;;;;;;;24.12;44.81;95588.44;4993241;28;20029;-48
2022/07/19 03:53:47;;;;;;;2.65;1.73;;;;;;;24.15;44.95;95592.91;4997584;28;20500;-48
2022/07/19 03:56:13;;;;;;;2.70;1.65;;;;;;;24.09;44.67;95594.91;4991157;28;20030;-51
2022/07/19 03:58:39;;;;;;;3.05;1.35;;;;;;;24.08;44.84;95598.88;4985089;28;20401;-51
2022/07/19 04:01:04;;;;;;;3.97;1.55;;;;;;;24.09;44.80;95600.34;4985911;28;20029;-51
2022/07/19 04:03:30;;;;;;;2.95;1.65;;;;;;;24.08;44.97;95604.34;5000006;28;20063;-50
2022/07/19 04:05:55;;;;;;;2.45;1.70;;;;;;;23.93;45.19;95581.28;5001602;28;20429;-51
2022/07/19 04:08:21;;;;;;;2.92;1.75;;;;;;;24.18;45.17;95602.81;4994866;28;20034;-50
2022/07/19 04:10:46;;;;;;;4.03;1.65;;;;;;;24.16;45.34;95605.31;5003010;28;20026;-50
2022/07/19 04:13:12;;;;;;;3.67;1.90;;;;;;;24.23;44.88;95617.69;4992380;28;20045;-52
2022/07/19 04:15:37;;;;;;;3.78;1.58;;;;;;;24.25;45.06;95613.22;5001702;28;20030;-51
2022/07/19 04:18:03;;;;;;;5.13;1.95;;;;;;;24.31;45.05;95613.97;4999036;28;20049;-49
2022/07/19 04:20:28;;;;;;;2.13;1.33;;;;;;;24.33;44.80;95619.69;5004155;28;20022;-51
2022/07/19 04:22:55;;;;;;;2.55;1.73;;;;;;;24.43;45.08;95618.91;5000521;28;20036;-51
2022/07/19 04:25:20;;;;;;;4.43;1.55;;;;;;;24.52;44.95;95623.34;4999570;28;20026;-51
2022/07/19 04:27:47;;;;;;;3.22;1.50;;;;;;;24.62;44.51;95614.38;5001813;28;20100;-50
2022/07/19 04:30:12;;;;;;;2.35;1.52;;;;;;;24.71;44.74;95618.78;5001896;28;20025;-52
2022/07/19 04:32:38;;;;;;;4.40;1.60;;;;;;;24.84;44.79;95620.50;4994399;28;20038;-51
2022/07/19 04:35:03;;;;;;;2.47;1.48;;;;;;;24.92;44.41;95620.69;4994491;28;20030;-51
2022/07/19 04:37:29;;;;;;;3.05;1.90;;;;;;;25.00;44.26;95616.94;4983862;28;20421;-52
2022/07/19 04:39:54;;;;;;;3.15;1.83;;;;;;;25.11;43.85;95611.44;5017493;28;20511;-50
2022/07/19 04:42:20;;;;;;;5.32;1.80;;;;;;;25.25;43.63;95615.06;4994884;28;20022;-50
2022/07/19 04:44:45;;;;;;;4.30;1.80;;;;;;;25.35;42.99;95622.44;4994032;28;20497;-51
2022/07/19 04:47:11;;;;;;;3.78;1.55;;;;;;;25.45;43.00;95618.16;4999581;28;20532;-51
2022/07/19 04:49:36;;;;;;;3.50;2.03;;;;;;;25.54;42.92;95623.31;5001406;28;20433;-51
2022/07/19 04:52:02;;;;;;;4.60;1.63;;;;;;;25.65;42.48;95620.50;4995524;28;20405;-51
2022/07/19 04:54:27;;;;;;;4.72;1.55;;;;;;;25.75;42.20;95619.69;5004845;28;20022;-50
2022/07/19 04:56:53;;;;;;;4.00;1.83;;;;;;;25.79;42.20;95622.88;5001080;28;20033;-51
2022/07/19 04:59:18;;;;;;;5.68;1.83;;;;;;;25.87;42.00;95627.31;5002700;28;20052;-51
2022/07/19 05:01:43;;;;;;;3.55;1.75;;;;;;;26.03;41.61;95626.38;5000969;28;20698;-52
2022/07/19 05:04:09;;;;;;;2.85;1.58;;;;;;;26.21;41.35;95627.72;5006012;28;20034;-52
2022/07/19 05:06:34;;;;;;;3.95;2.03;;;;;;;26.35;40.66;95627.34;5003862;28;20038;-50
2022/07/19 05:09:02;;;;;;;3.60;1.60;;;;;;;26.46;40.37;95621.75;5001237;28;20040;-51
2022/07/19 05:11:28;;;;;;;2.63;1.83;;;;;;;26.54;40.31;95628.13;5004907;28;20108;-51
2022/07/19 05:13:53;;;;;;;3.80;1.80;;;;;;;26.56;40.73;95625.63;4991939;28;20077;-52
2022/07/19 05:16:19;;;;;;;3.08;1.50;;;;;;;26.61;40.56;95622.09;4996681;28;20398;-52
2022/07/19 05:18:44;;;;;;;3.30;1.73;;;;;;;26.66;40.08;95624.75;4989517;28;20077;-53
2022/07/19 05:21:09;;;;;;;4.57;2.20;;;;;;;26.69;40.14;95628.47;4993529;28;20683;-53
2022/07/19 05:23:35;;;;;;;3.50;1.80;;;;;;;26.72;39.87;95616.47;4995865;28;20519;-51
2022/07/19 05:26:00;;;;;;;2.03;1.60;;;;;;;26.77;40.19;95630.84;4996481;28;20061;-52
2022/07/19 05:28:26;;;;;;;3.05;1.83;;;;;;;26.82;40.02;95632.78;4995187;28;20030;-52
2022/07/19 05:30:51;;;;;;;3.97;2.03;;;;;;;26.88;40.45;95630.69;4992588;28;20084;-50
2022/07/19 05:33:17;;;;;;;4.90;2.10;;;;;;;26.91;40.08;95624.22;4999630;28;20107;-51
2022/07/19 05:35:42;;;;;;;2.70;2.08;;;;;;;26.87;39.71;95623.72;5003194;28;20520;-51
2022/07/19 05:38:08;;;;;;;4.80;2.05;;;;;;;26.95;40.03;95635.63;4992228;28;20032;-51
2022/07/19 05:40:33;;;;;;;3.63;2.00;;;;;;;26.96;39.83;95636.38;5018118;28;20494;-51
2022/07/19 05:43:00;;;;;;;3.13;1.83;;;;;;;26.99;40.01;95630.59;4997712;28;20034;-51
2022/07/19 05:45:26;;;;;;;5.13;2.58;;;;;;;27.00;40.14;95632.06;5003793;28;20048;-50
2022/07/19 05:47:52;;;;;;;3.88;2.17;;;;;;;27.04;40.00;95621.56;4994308;28;20034;-51
2022/07/19 05:50:17;;;;;;;4.88;2.33;;;;;;;27.07;39.78;95625.25;5013047;28;20037;-53
2022/07/19 05:52:43;;;;;;;5.53;2.17;;;;;;;27.06;39.84;95634.75;4990353;28;20403;-51
2022/07/19 05:55:08;;;;;;;4.35;1.98;;;;;;;27.21;40.03;95619.31;5018120;28;20517;-51
2022/07/19 05:57:34;;;;;;;3.70;2.10;;;;;;;27.28;40.43;95629.72;4997148;28;20064;-51
2022/07/19 05:59:59;;;;;;;5.22;2.78;;;;;;;27.34;39.60;95627.63;4993672;28;20583;-51
2022/07/19 06:02:25;;;;;;;4.00;2.30;;;;;;;27.33;39.50;95626.13;4995754;28;20038;-51
2022/07/19 06:04:50;;;;;;;5.72;2.20;;;;;;;27.42;39.03;95628.50;4994689;28;20080;-51
2022/07/19 06:07:17;;;;;;;5.82;2.20;;;;;;;27.47;39.01;95613.94;4991770;28;20045;-52
2022/07/19 06:09:42;;;;;;;3.92;2.10;;;;;;;27.45;38.93;95627.47;4989958;28;20057;-52
2022/07/19 06:12:08;;;;;;;6.90;2.50;;;;;;;27.49;39.29;95619.69;4999816;28;20046;-51
2022/07/19 06:14:33;;;;;;;4.65;2.13;;;;;;;27.52;39.19;95621.38;4999403;28;20234;-51
2022/07/19 06:22:22;;;;;;;3.60;1.80;;;;;;;27.80;38.43;95620.44;4962620;28;20054;-56
2022/07/19 06:24:48;;;;;;;4.75;2.10;;;;;;;27.73;39.35;95621.03;4972363;28;20034;-51
2022/07/19 06:27:13;;;;;;;4.10;2.20;;;;;;;27.71;39.59;95622.81;4964493;28;20571;-53
2022/07/19 06:29:39;;;;;;;7.70;2.45;;;;;;;27.83;38.71;95624.88;4969045;28;20509;-52
2022/07/19 06:32:05;;;;;;;5.40;2.40;;;;;;;27.82;39.01;95617.91;4948583;28;20030;-53
2022/07/19 06:34:30;;;;;;;5.60;2.17;;;;;;;27.69;39.45;95613.66;4967605;28;20022;-53
2022/07/19 06:36:55;;;;;;;6.88;2.75;;;;;;;27.58;39.70;95613.81;4966358;28;20087;-51
2022/07/19 06:39:21;;;;;;;4.80;2.00;;;;;;;27.47;39.45;95611.22;4967935;28;20493;-54
2022/07/19 06:41:47;;;;;;;5.57;2.10;;;;;;;27.51;39.50;95606.94;4962707;28;20324;-52
2022/07/19 06:44:13;;;;;;;6.13;2.10;;;;;;;27.51;39.50;95606.94;4963593;28;20129;-52
2022/07/19 06:46:38;;;;;;;4.68;1.90;;;;;;;27.45;39.41;95605.50;4965764;28;20023;-53
2022/07/19 06:49:04;;;;;;;9.23;2.47;;;;;;;27.36;40.25;95614.13;4968862;28;20031;-53
2022/07/19 06:51:29;;;;;;;3.97;2.17;;;;;;;27.26;40.35;95611.03;4970543;28;20030;-54
2022/07/19 06:53:55;;;;;;;5.45;2.00;;;;;;;27.28;40.00;95605.03;4959273;28;20019;-53
2022/07/19 06:56:20;;;;;;;4.32;2.00;;;;;;;27.30;39.85;95610.72;4962701;28;20027;-51
2022/07/19 06:58:46;;;;;;;4.43;2.00;;;;;;;27.24;40.35;95608.03;4962211;28;20027;-52
2022/07/19 07:01:11;;;;;;;5.15;1.75;;;;;;;27.15;40.10;95610.44;4964254;28;20066;-52
2022/07/19 07:03:37;;;;;;;3.05;1.75;;;;;;;27.13;40.19;95602.00;4982153;28;20146;-50
2022/07/19 07:06:03;;;;;;;5.40;2.28;;;;;;;27.15;40.06;95593.97;4981154;28;20026;-51
2022/07/19 07:08:29;;;;;;;4.43;2.13;;;;;;;27.09;40.47;95612.50;4974476;28;20027;-52
2022/07/19 07:10:54;;;;;;;4.28;1.98;;;;;;;27.06;40.43;95608.06;4968932;28;20030;-52
2022/07/19 07:13:20;;;;;;;5.53;2.10;;;;;;;27.00;40.94;95593.69;4981399;28;20088;-51
2022/07/19 07:15:45;;;;;;;3.55;1.90;;;;;;;26.96;40.41;95598.72;4981945;28;20053;-53
2022/07/19 07:18:11;;;;;;;4.60;2.00;;;;;;;26.97;40.02;95594.72;4981753;28;20477;-51
2022/07/19 07:20:36;;;;;;;6.10;1.83;;;;;;;26.95;40.24;95591.78;4980636;28;20057;-52
2022/07/19 07:23:02;;;;;;;4.10;1.90;;;;;;;26.96;39.88;95593.25;4971087;28;20856;-50
2022/07/19 07:25:28;;;;;;;6.47;2.00;;;;;;;26.91;39.86;95596.81;4970601;28;20039;-52
2022/07/19 07:27:53;;;;;;;3.20;2.17;;;;;;;26.90;40.02;95597.31;4970442;28;20110;-51
2022/07/19 07:30:19;;;;;;;4.88;2.45;;;;;;;26.89;39.95;95604.81;4971550;28;20050;-53
2022/07/19 07:32:45;;;;;;;3.95;1.80;;;;;;;26.85;40.30;95596.09;4964370;28;20022;-52
2022/07/19 07:35:10;;;;;;;8.30;2.45;;;;;;;26.85;39.93;95593.38;4980636;28;20052;-55
2022/07/19 07:37:35;;;;;;;2.83;2.10;;;;;;;26.85;39.13;95593.38;4982020;28;20033;-52
2022/07/19 07:40:01;;;;;;;4.15;2.10;;;;;;;26.82;39.11;95591.66;4964343;28;20425;-51
2022/07/19 07:42:27;;;;;;;7.03;2.15;;;;;;;26.79;39.35;95589.94;4982019;28;20034;-53
2022/07/19 07:44:52;;;;;;;5.32;2.28;;;;;;;26.80;39.29;95594.19;4982512;28;20041;-50
2022/07/19 07:47:18;;;;;;;5.03;2.08;;;;;;;26.81;39.44;95595.66;4980246;28;20022;-50
2022/07/19 07:49:44;;;;;;;5.07;1.90;;;;;;;26.64;38.69;95569.00;4981557;28;20417;-51
2022/07/19 07:52:09;;;;;;;4.32;1.92;;;;;;;26.76;38.54;95580.03;4981860;28;20109;-52
2022/07/19 07:54:35;;;;;;;2.45;1.80;;;;;;;26.75;38.56;95583.28;4982116;28;20449;-52
2022/07/19 07:57:00;;;;;;;2.50;1.80;;;;;;;26.81;38.41;95587.44;4981830;28;20029;-51
2022/07/19 07:59:26;;;;;;;2.85;1.67;;;;;;;26.82;38.11;95588.91;4961724;28;20057;-50
2022/07/19 08:01:51;;;;;;;3.45;1.98;;;;;;;26.83;37.87;95590.41;4976162;28;20619;-50
2022/07/19 08:04:16;;;;;;;4.85;1.70;;;;;;;26.77;37.96;95581.50;4972473;28;20026;-51
2022/07/19 08:06:42;;;;;;;4.55;1.58;;;;;;;26.81;37.88;95576.47;4981168;28;20038;-55
2022/07/19 08:09:07;;;;;;;3.03;1.95;;;;;;;26.77;37.60;95581.50;4980690;28;20046;-55
2022/07/19 08:11:33;;;;;;;3.58;1.70;;;;;;;26.77;37.55;95587.00;4981285;28;20038;-53
2022/07/19 08:13:58;;;;;;;4.10;1.70;;;;;;;26.74;37.51;95576.34;4982034;28;20037;-52
2022/07/19 08:16:24;;;;;;;2.88;1.90;;;;;;;26.80;37.66;95585.97;4981220;28;20043;-51
2022/07/19 08:18:49;;;;;;;3.78;1.80;;;;;;;26.80;37.39;95585.97;4981169;28;20026;-51
2022/07/19 08:21:15;;;;;;;2.97;1.75;;;;;;;26.78;37.26;95588.47;4981849;28;20513;-54
2022/07/19 08:23:41;;;;;;;4.13;1.52;;;;;;;26.76;37.78;95589.53;4981691;28;20038;-53
2022/07/19 08:26:08;;;;;;;5.03;1.58;;;;;;;26.77;36.61;95578.78;4969574;28;20089;-54
2022/07/19 08:28:33;;;;;;;4.07;1.90;;;;;;;26.80;36.39;95568.75;4984378;28;20444;-56
2022/07/19 08:30:59;;;;;;;2.83;1.73;;;;;;;26.83;36.27;95584.94;4985574;28;20045;-51
2022/07/19 08:33:24;;;;;;;3.13;1.48;;;;;;;26.82;35.33;95583.44;4984568;28;20064;-50
2022/07/19 08:35:50;;;;;;;2.78;1.50;;;;;;;26.85;35.27;95576.91;4984936;28;20041;-51
2022/07/19 08:38:15;;;;;;;2.92;1.50;;;;;;;26.86;34.68;95578.41;4984048;28;20023;-50
2022/07/19 08:40:41;;;;;;;3.85;1.98;;;;;;;26.87;35.36;95579.88;4969114;28;20019;-52
2022/07/19 08:43:07;;;;;;;3.10;1.35;;;;;;;26.85;34.93;95571.44;4964261;28;20041;-51
2022/07/19 08:45:33;;;;;;;3.47;1.75;;;;;;;26.85;35.15;95582.41;4970382;28;20030;-51
2022/07/19 08:47:58;;;;;;;2.63;1.50;;;;;;;26.87;35.62;95565.44;4963198;28;20095;-53
2022/07/19 08:50:25;;;;;;;5.30;1.52;;;;;;;26.80;35.10;95561.28;4967671;28;20120;-50
2022/07/19 08:52:51;;;;;;;2.90;1.33;;;;;;;26.86;36.14;95570.19;4964503;28;20015;-50
2022/07/19 08:55:16;;;;;;;6.65;2.05;;;;;;;26.89;34.61;95571.91;4964460;28;20038;-51
2022/07/19 08:57:57;;;;;;;4.63;1.70;;;;;;;26.84;34.35;95564.47;4966006;28;20022;-51
2022/07/19 09:00:23;;;;;;;6.28;1.50;;;;;;;26.88;33.84;95562.16;4977085;28;20034;-52
2022/07/19 09:02:56;;;;;;;5.70;1.58;;;;;;;26.90;34.51;95572.66;4980486;28;20061;-55
2022/07/19 09:05:21;;;;;;;3.67;1.83;;;;;;;26.88;34.63;95567.66;4976669;28;20027;-54
2022/07/19 09:08:12;;;;;;;4.03;1.80;;;;;;;26.95;34.21;95569.84;4973570;28;20038;-53
2022/07/19 09:11:14;;;;;;;4.05;1.67;;;;;;;26.89;34.17;95555.47;4974975;28;20563;-55
2022/07/19 09:13:34;;;;;;;3.38;1.35;;;;;;;26.90;33.97;95567.91;4971491;28;20053;-52
2022/07/19 09:15:59;;;;;;;2.67;1.50;;;;;;;26.97;33.55;95572.78;4961292;28;20582;-53
2022/07/19 09:18:32;;;;;;;2.40;1.80;;;;;;;26.93;34.03;95555.91;4980192;28;20097;-52
2022/07/19 09:20:59;;;;;;;3.80;1.48;;;;;;;27.06;33.79;95568.94;4981921;28;20050;-54
2022/07/19 09:23:25;;;;;;;4.50;1.77;;;;;;;27.10;33.42;95564.66;4981058;28;20518;-53
2022/07/19 09:25:55;;;;;;;2.97;1.80;;;;;;;27.18;33.19;95549.06;4948462;28;20011;-56
2022/07/19 09:28:21;;;;;;;2.33;1.58;;;;;;;27.28;33.49;95541.94;4982288;28;20026;-52
2022/07/19 09:30:48;;;;;;;2.65;1.73;;;;;;;27.31;33.24;95540.91;4983633;28;20022;-56
2022/07/19 09:33:22;;;;;;;3.83;1.70;;;;;;;27.45;31.81;95542.41;4963753;28;20142;-53
2022/07/19 09:35:54;;;;;;;3.45;2.00;;;;;;;27.66;32.33;95549.56;4963865;28;20118;-54
2022/07/19 09:38:19;;;;;;;4.38;1.73;;;;;;;27.75;32.87;95558.13;4963395;28;20450;-53
2022/07/19 09:40:46;;;;;;;2.40;1.80;;;;;;;27.84;32.76;95543.97;4964316;28;20402;-53
2022/07/19 09:43:11;;;;;;;2.53;1.77;;;;;;;27.93;32.39;95535.34;4964075;28;20050;-54
2022/07/19 09:45:37;;;;;;;3.20;1.65;;;;;;;28.09;32.05;95531.59;4963230;28;20458;-54
2022/07/19 09:48:03;;;;;;;1.92;1.60;;;;;;;28.22;32.10;95542.59;4963948;28;20031;-54
2022/07/19 09:50:29;;;;;;;3.90;1.63;;;;;;;28.38;32.05;95536.00;4976558;28;20034;-53
2022/07/19 09:52:54;;;;;;;3.30;1.45;;;;;;;28.51;31.86;95538.75;4971593;28;20564;-54
2022/07/19 09:55:20;;;;;;;1.95;1.40;;;;;;;28.59;32.36;95534.06;4963561;28;20030;-53
2022/07/19 09:57:47;;;;;;;3.35;1.50;;;;;;;28.68;31.78;95525.41;4966345;28;20473;-54
2022/07/19 10:00:14;;;;;;;2.80;1.27;;;;;;;28.78;32.21;95536.16;4964259;28;20031;-54
2022/07/19 10:02:41;;;;;;;4.45;1.50;;;;;;;28.90;31.26;95534.66;4946263;28;20093;-54
2022/07/19 10:05:07;;;;;;;3.05;1.38;;;;;;;29.04;31.20;95536.09;4961262;28;20101;-55
2022/07/19 10:07:33;;;;;;;2.17;1.55;;;;;;;29.09;30.47;95529.75;4964576;28;20137;-54
2022/07/19 10:10:06;;;;;;;3.67;1.88;;;;;;;29.18;30.82;95523.78;4966590;28;20034;-55
2022/07/19 10:12:32;;;;;;;2.40;1.50;;;;;;;29.26;30.86;95528.09;4966358;28;20077;-54
2022/07/19 10:14:58;;;;;;;6.38;1.88;;;;;;;29.32;31.46;95538.97;4967441;28;20122;-53
2022/07/19 10:17:40;;;;;;;3.55;1.50;;;;;;;29.39;30.77;95522.53;4983105;28;20751;-51
2022/07/19 10:20:06;;;;;;;2.78;1.65;;;;;;;29.51;31.29;95520.28;4966756;28;20516;-52
2022/07/19 10:22:32;;;;;;;2.60;1.70;;;;;;;29.55;30.92;95523.41;4965880;28;20027;-52
2022/07/19 10:25:03;;;;;;;3.60;1.35;;;;;;;29.58;31.31;95517.59;4977723;28;20026;-52
2022/07/19 10:27:40;;;;;;;3.10;1.50;;;;;;;29.49;30.86;95498.03;4974223;28;20133;-52
2022/07/19 10:30:11;;;;;;;3.70;1.60;;;;;;;29.52;31.13;95518.97;4969433;28;20118;-51
2022/07/19 10:32:43;;;;;;;3.05;1.77;;;;;;;29.35;31.11;95496.63;4970538;28;20031;-52
2022/07/19 10:35:16;;;;;;;3.60;1.50;;;;;;;29.36;30.89;95511.88;4983652;28;20100;-54
2022/07/19 10:37:42;;;;;;;2.00;1.33;;;;;;;29.23;30.87;95509.16;4952742;28;20026;-52
2022/07/19 10:40:08;;;;;;;2.67;1.73;;;;;;;29.18;30.71;95512.78;4966183;28;20027;-53
2022/07/19 10:42:33;;;;;;;3.17;1.70;;;;;;;29.10;31.63;95506.44;4982852;28;20068;-54
2022/07/19 10:45:02;;;;;;;2.85;1.55;;;;;;;28.97;31.76;95503.75;4983516;28;20512;-53
2022/07/19 10:47:39;;;;;;;3.10;1.63;;;;;;;29.00;31.31;95510.94;4982425;28;20026;-51
2022/07/19 10:50:14;;;;;;;3.80;1.42;;;;;;;28.91;31.34;95511.41;4982773;28;20543;-52
2022/07/19 10:52:42;;;;;;;4.30;1.40;;;;;;;28.89;31.49;95507.69;4981385;28;20030;-54
2022/07/19 10:55:17;;;;;;;3.58;1.73;;;;;;;28.83;31.47;95505.09;4981857;28;20030;-52
2022/07/19 10:58:12;;;;;;;3.72;2.03;;;;;;;28.76;31.61;95500.22;4982213;28;20487;-51
2022/07/19 11:00:48;;;;;;;5.28;1.95;;;;;;;28.72;32.45;95492.84;4980047;28;20137;-51
2022/07/19 11:03:22;;;;;;;3.15;1.33;;;;;;;28.71;32.12;95496.88;4970035;28;20066;-51
2022/07/19 11:05:49;;;;;;;2.45;1.67;;;;;;;28.69;32.91;95485.69;4983135;28;20034;-51
2022/07/19 11:08:14;;;;;;;2.60;1.50;;;;;;;28.62;32.23;95495.25;4982918;28;20034;-53
2022/07/19 11:10:39;;;;;;;4.85;1.65;;;;;;;28.55;31.87;95484.19;4965992;28;20019;-53
2022/07/19 11:13:05;;;;;;;2.58;1.83;;;;;;;28.50;32.48;95487.78;4983199;28;20571;-51
2022/07/19 11:15:31;;;;;;;2.40;1.63;;;;;;;28.48;32.75;95479.34;4983801;28;20041;-52
2022/07/19 11:17:58;;;;;;;3.13;1.42;;;;;;;28.46;32.92;95481.88;4982652;28;20061;-51
2022/07/19 11:20:25;;;;;;;3.30;1.60;;;;;;;28.44;32.71;95484.44;4968873;28;20062;-53
2022/07/19 11:22:51;;;;;;;2.00;1.50;;;;;;;28.36;32.33;95467.13;4965546;28;20023;-51
2022/07/19 11:25:22;;;;;;;2.40;1.70;;;;;;;28.36;33.21;95486.34;4972207;28;20028;-53
2022/07/19 11:27:48;;;;;;;2.13;1.70;;;;;;;28.37;32.71;95471.31;4974649;28;20046;-53
2022/07/19 11:30:13;;;;;;;2.80;1.67;;;;;;;28.43;33.54;95466.44;4981453;28;20022;-51
2022/07/19 11:32:41;;;;;;;3.72;1.50;;;;;;;28.37;33.52;95458.34;4982368;28;20565;-50
2022/07/19 11:35:07;;;;;;;4.30;1.67;;;;;;;28.42;32.94;95486.97;4982662;28;20281;-52